Flugplatz Gotha-Ost (EDEG)

Hier findest Du alle Informationen zum Flugplatz Gotha-Ost (EDEG).

Informationen für Piloten zum Flugplatz Gotha-Ost

Hier findest Du alle relevanten Informationen, die Du als Pilot benötigst, um Gotha-Ost anzufliegen.

Flugplatz: Gotha-Ost ICAO-Code: EDEG
Frequenz Turm: 122,500 Mhz GAFOR Gebiet: 24
Frequenz Ground: 122,500 Mhz Mogas: nein
Platzrunde: N 1800 ft Landegebühr: -
Platzhöhe: - Sunrise: 04:00 Uhr UTC
Pisten: 08/26 - 470 m x , GRAS Sunset: 18:43 Uhr UTC

Mitglieder, die in Gotha-Ost fliegen

Flugwetter am Flugplatz Gotha-Ost

Die METAR Information stammen aus EDDE (16.13 km entfernt).

METAR Code:
2020/08/01 23:50
EDDE 012350Z 22005KT CAVOK 19/15 Q1014

Temperatur: 20,6 °C Niederschlag: - Wind: 1,9 kt
Temperatur (min.): 18,9 °C Luftdruck: 1016 hPa Windrichtung: -
Temperatur (max.): 22,2 °C Luftfeuchtigkeit: 73 % Bewölkung: 3/8

Flugschulen am Flugplatz Gotha-Ost

Am Flugplatz Gotha-Ost gibt es eine Flugschule.

Benachbarte Flugplätze und Flugschulen

Es gibt 14 weitere Flugplätze in einem Umkreis von 50 km um den Flugplatz Gotha-Ost.

Jetzt anmelden

Passwort vergessen

Umfrage Archiv

Wären Rettungsgeräte keine Pflicht mehr, würdet Ihr Euer UL trotzdem mit einem ausstatten?

Ja
83.5 %
Nein
16.5 %
Stimmen: 260 | Diskussion
Anzeige: Roland Aircraft
Statistik Alle Mitglieder

Aktuell sind 53 Besucher online, davon 1 Mitglied und 52 Gäste.


Mitglieder online:
Maraio 

Anzeige: VFR Sprechfunk Simulator


Anzeige: Pocket FMS